Time;durP1;ratioP1;P1;durP2;ratioP2;P2;SDS_P1;SDS_P2;PMS_P1;PMS_P2;Temp;Humidity;BMP_temperature;BMP_pressure;BME280_temperature;BME280_humidity;BME280_pressure;Samples;Min_cycle;Max_cycle;Signal;HPM_P1;HPM_P2
2023/08/01 00:01:21;;;;;;;10.13;5.60;;;;;;;17.18;100.00;99769.97;5109084;28;20048;-64
2023/08/01 00:03:49;;;;;;;7.20;4.47;;;;;;;17.19;100.00;99768.00;5105165;28;20043;-62
2023/08/01 00:06:17;;;;;;;8.18;5.20;;;;;;;17.16;100.00;99771.44;5113982;28;20085;-64
2023/08/01 00:08:45;;;;;;;8.05;5.10;;;;;;;17.14;100.00;99768.22;5065863;28;20082;-64
2023/08/01 00:11:14;;;;;;;7.22;5.40;;;;;;;17.15;100.00;99767.06;5105804;28;20050;-63
2023/08/01 00:13:43;;;;;;;9.98;6.13;;;;;;;17.12;100.00;99765.00;5114556;28;20055;-65
2023/08/01 00:16:10;;;;;;;7.78;5.07;;;;;;;17.08;100.00;99745.63;5113088;28;20101;-65
2023/08/01 00:18:38;;;;;;;12.63;6.18;;;;;;;17.02;100.00;99742.25;5109257;28;20035;-62
2023/08/01 00:21:09;;;;;;;13.02;6.43;;;;;;;16.99;100.00;99742.94;5119169;28;20475;-64
2023/08/01 00:23:37;;;;;;;11.13;6.20;;;;;;;16.97;100.00;99742.47;5098596;28;20055;-63
2023/08/01 00:26:05;;;;;;;11.40;6.35;;;;;;;16.97;100.00;99736.16;5099793;28;20048;-63
2023/08/01 00:28:33;;;;;;;11.27;5.60;;;;;;;16.94;100.00;99743.16;5116908;28;20419;-64
2023/08/01 00:31:05;;;;;;;11.00;5.90;;;;;;;16.92;100.00;99742.66;5105180;28;20043;-67
2023/08/01 00:33:33;;;;;;;10.52;5.65;;;;;;;16.89;100.00;99748.84;5093649;28;20047;-63
2023/08/01 00:36:01;;;;;;;8.50;5.20;;;;;;;16.88;100.00;99747.22;5098096;28;20054;-65
2023/08/01 00:38:29;;;;;;;10.50;5.03;;;;;;;16.89;100.00;99742.56;5098535;28;20560;-62
2023/08/01 00:40:57;;;;;;;9.30;5.15;;;;;;;16.93;100.00;99732.47;5085049;28;20055;-66
2023/08/01 00:43:25;;;;;;;10.68;5.47;;;;;;;16.94;100.00;99728.59;5079904;28;20416;-62
2023/08/01 00:45:58;;;;;;;8.90;5.38;;;;;;;16.95;100.00;99721.94;5097232;28;20048;-63
2023/08/01 00:48:26;;;;;;;12.30;5.82;;;;;;;16.96;100.00;99718.84;5098263;28;20055;-64
2023/08/01 00:50:54;;;;;;;8.48;4.70;;;;;;;16.96;100.00;99729.84;5097468;28;20050;-63
2023/08/01 00:53:22;;;;;;;10.50;5.78;;;;;;;16.97;100.00;99728.69;5116227;28;20103;-62
2023/08/01 00:55:53;;;;;;;9.02;5.28;;;;;;;16.96;100.00;99720.81;5080347;28;20047;-62
2023/08/01 00:58:21;;;;;;;11.68;5.70;;;;;;;16.97;100.00;99719.66;5089016;28;20044;-63
2023/08/01 01:00:49;;;;;;;6.95;3.88;;;;;;;16.97;100.00;99717.69;5083368;28;20574;-63
2023/08/01 01:03:17;;;;;;;10.02;4.95;;;;;;;16.99;100.00;99718.16;5083481;28;20098;-64
2023/08/01 01:05:54;;;;;;;12.13;5.50;;;;;;;16.98;100.00;99721.25;5111234;28;20050;-62
2023/08/01 01:08:21;;;;;;;9.15;4.35;;;;;;;16.96;100.00;99712.56;5081920;28;20047;-62
2023/08/01 01:10:49;;;;;;;14.07;5.07;;;;;;;16.94;100.00;99720.34;5098354;28;20065;-63
2023/08/01 01:13:17;;;;;;;10.07;5.00;;;;;;;16.93;100.00;99725.03;5097786;28;20039;-64
2023/08/01 01:15:45;;;;;;;9.23;4.82;;;;;;;16.95;100.00;99721.94;5097166;28;20043;-62
2023/08/01 01:18:13;;;;;;;13.68;4.50;;;;;;;16.92;100.00;99723.41;5085956;28;20496;-62
2023/08/01 01:20:40;;;;;;;10.02;3.92;;;;;;;16.92;100.00;99725.38;5098877;28;20054;-62
2023/08/01 01:23:09;;;;;;;9.27;4.20;;;;;;;16.93;100.00;99714.03;5114523;28;20060;-63
2023/08/01 01:25:39;;;;;;;9.30;4.40;;;;;;;16.91;100.00;99708.06;5076485;28;20043;-63
2023/08/01 01:28:08;;;;;;;8.52;4.03;;;;;;;16.91;100.00;99708.06;5082021;28;20044;-63
2023/08/01 01:30:36;;;;;;;9.27;4.72;;;;;;;16.90;100.00;99713.88;5110787;28;20032;-62
2023/08/01 01:33:05;;;;;;;11.23;4.72;;;;;;;16.88;100.00;99713.41;5098200;28;20438;-64
2023/08/01 01:35:36;;;;;;;10.02;4.38;;;;;;;16.89;100.00;99717.78;5082060;28;20048;-62
2023/08/01 01:38:04;;;;;;;9.40;4.07;;;;;;;16.86;100.00;99711.03;5079928;28;20047;-62
2023/08/01 01:40:33;;;;;;;10.32;4.13;;;;;;;16.86;100.00;99711.03;5115451;28;20048;-62
2023/08/01 01:43:01;;;;;;;10.88;4.13;;;;;;;16.87;100.00;99709.88;5074938;28;20399;-63
2023/08/01 01:45:29;;;;;;;10.30;3.63;;;;;;;16.85;100.00;99709.41;5108346;28;20048;-63
2023/08/01 01:47:57;;;;;;;12.13;4.97;;;;;;;16.82;100.00;99705.38;5096294;28;20087;-63
2023/08/01 01:50:25;;;;;;;6.55;3.00;;;;;;;16.88;100.00;99705.16;5114933;28;20042;-62
2023/08/01 01:52:53;;;;;;;10.77;4.10;;;;;;;16.87;100.00;99709.06;5112306;28;20057;-63
2023/08/01 01:55:20;;;;;;;9.55;4.40;;;;;;;16.87;100.00;99707.13;5081317;28;20044;-64
2023/08/01 01:57:49;;;;;;;10.15;4.40;;;;;;;16.87;100.00;99701.63;5100621;28;20040;-64
2023/08/01 02:00:16;;;;;;;11.57;4.40;;;;;;;16.85;100.00;99701.13;5112262;28;20173;-62
2023/08/01 02:02:44;;;;;;;9.15;4.18;;;;;;;16.84;100.00;99707.81;5111161;28;20054;-60
2023/08/01 02:05:12;;;;;;;7.47;3.47;;;;;;;16.85;100.00;99706.66;5082778;28;20084;-63
2023/08/01 02:07:40;;;;;;;10.02;4.28;;;;;;;16.85;100.00;99706.66;5115727;28;20104;-63
2023/08/01 02:10:08;;;;;;;16.80;5.90;;;;;;;16.82;100.00;99707.31;5097783;28;20043;-61
2023/08/01 02:12:36;;;;;;;11.20;5.00;;;;;;;16.74;100.00;99705.41;5115437;28;20043;-64
2023/08/01 02:15:06;;;;;;;16.65;5.43;;;;;;;16.75;100.00;99701.53;5098199;28;20073;-62
2023/08/01 02:17:33;;;;;;;10.90;4.60;;;;;;;16.75;100.00;99696.03;5097072;28;20059;-61
2023/08/01 02:20:04;;;;;;;10.90;4.75;;;;;;;16.70;100.00;99696.25;5097336;28;20047;-63
2023/08/01 02:22:33;;;;;;;14.82;5.50;;;;;;;16.69;100.00;99697.38;5096953;28;20044;-62
2023/08/01 02:25:01;;;;;;;14.00;5.53;;;;;;;16.63;100.00;99704.22;5098576;28;20074;-64
2023/08/01 02:27:29;;;;;;;11.98;5.05;;;;;;;16.61;100.00;99702.59;5100222;28;20091;-64
2023/08/01 02:29:57;;;;;;;15.00;5.72;;;;;;;16.59;100.00;99710.38;5099274;28;20054;-64
2023/08/01 02:32:24;;;;;;;9.05;4.70;;;;;;;16.57;100.00;99707.19;5117107;28;20104;-62
2023/08/01 02:34:53;;;;;;;15.50;5.35;;;;;;;16.57;100.00;99711.84;5096570;28;20043;-61
2023/08/01 02:37:21;;;;;;;11.80;4.75;;;;;;;16.59;100.00;99706.81;5095984;28;20396;-64
2023/08/01 02:39:49;;;;;;;8.43;3.58;;;;;;;16.59;100.00;99707.63;5096220;28;20043;-63
2023/08/01 02:42:17;;;;;;;12.32;4.65;;;;;;;16.64;100.00;99703.06;5094634;28;20404;-64
2023/08/01 02:44:44;;;;;;;14.38;5.30;;;;;;;16.63;100.00;99713.28;5114784;28;20047;-63
2023/08/01 02:47:12;;;;;;;12.15;5.30;;;;;;;16.61;100.00;99708.09;5093070;28;20094;-63
2023/08/01 02:49:40;;;;;;;13.00;5.47;;;;;;;16.65;100.00;99718.44;5075753;28;20044;-62
2023/08/01 02:52:10;;;;;;;12.73;5.13;;;;;;;16.61;100.00;99719.09;5104417;28;20108;-62
2023/08/01 02:54:37;;;;;;;15.85;5.50;;;;;;;16.61;100.00;99718.31;5110532;28;20120;-62
2023/08/01 02:57:06;;;;;;;14.40;5.65;;;;;;;16.60;100.00;99727.72;5078895;28;20051;-62
2023/08/01 02:59:33;;;;;;;14.80;5.90;;;;;;;16.53;100.00;99722.75;5114574;28;20068;-63
2023/08/01 03:02:01;;;;;;;12.63;5.38;;;;;;;16.53;100.00;99721.94;5111976;28;20488;-65
2023/08/01 03:04:29;;;;;;;11.38;4.82;;;;;;;16.53;100.00;99716.44;5095408;28;20043;-63
2023/08/01 03:07:13;;;;;;;14.23;5.93;;;;;;;16.55;100.00;99719.66;5113562;28;20046;-64
2023/08/01 03:09:42;;;;;;;10.77;3.85;;;;;;;16.60;100.00;99723.00;5112272;28;20404;-65
2023/08/01 03:12:10;;;;;;;17.02;5.90;;;;;;;16.58;100.00;99717.03;5101951;28;20056;-63
2023/08/01 03:14:38;;;;;;;12.57;5.55;;;;;;;16.57;100.00;99718.19;5114562;28;20047;-64
2023/08/01 03:17:08;;;;;;;10.77;4.47;;;;;;;16.61;100.00;99707.31;5078827;28;20058;-62
2023/08/01 03:19:36;;;;;;;11.30;4.90;;;;;;;16.64;100.00;99706.63;5109360;28;20055;-63
2023/08/01 03:22:04;;;;;;;13.27;5.57;;;;;;;16.58;100.00;99703.28;5093898;28;20055;-63
2023/08/01 03:24:32;;;;;;;15.90;6.55;;;;;;;16.57;100.00;99718.19;5112100;28;20492;-62
2023/08/01 03:27:00;;;;;;;12.07;5.72;;;;;;;16.52;100.00;99715.59;5111976;28;20047;-64
2023/08/01 03:29:29;;;;;;;16.10;6.78;;;;;;;16.51;100.00;99713.22;5095219;28;20047;-64
2023/08/01 03:31:57;;;;;;;10.82;5.25;;;;;;;16.49;100.00;99715.50;5113936;28;20046;-63
2023/08/01 03:34:26;;;;;;;13.00;5.93;;;;;;;16.50;100.00;99709.66;5109232;28;20051;-62
2023/08/01 03:36:54;;;;;;;15.32;6.88;;;;;;;16.47;100.00;99713.06;5113056;28;20054;-64
2023/08/01 03:39:23;;;;;;;13.65;6.07;;;;;;;16.45;100.00;99715.38;5113178;28;20051;-63
2023/08/01 03:41:51;;;;;;;18.60;7.80;;;;;;;16.42;100.00;99718.75;5112854;28;20047;-64
2023/08/01 03:44:20;;;;;;;13.93;5.55;;;;;;;16.47;100.00;99715.00;5109969;28;20095;-62
2023/08/01 03:46:48;;;;;;;17.60;9.25;;;;;;;16.44;100.00;99713.75;5113656;28;20066;-63
2023/08/01 03:49:15;;;;;;;17.20;9.10;;;;;;;16.42;100.00;99721.50;5115467;28;20054;-64
2023/08/01 03:51:43;;;;;;;16.23;8.70;;;;;;;16.44;100.00;99718.44;5118407;28;20050;-64
2023/08/01 03:54:12;;;;;;;17.85;9.95;;;;;;;16.48;100.00;99714.69;5115384;28;20510;-62
2023/08/01 03:56:43;;;;;;;21.08;9.70;;;;;;;16.45;100.00;99715.38;5117337;28;20069;-63
2023/08/01 03:59:17;;;;;;;18.10;8.45;;;;;;;16.43;100.00;99723.13;5110568;28;20114;-62
2023/08/01 04:01:45;;;;;;;12.68;6.40;;;;;;;16.43;100.00;99720.38;5115016;28;20058;-65
2023/08/01 04:04:13;;;;;;;17.05;9.30;;;;;;;16.43;100.00;99717.63;5113167;28;20491;-59
2023/08/01 04:06:41;;;;;;;20.63;9.82;;;;;;;16.42;100.00;99721.50;5115670;28;20054;-62
2023/08/01 04:09:09;;;;;;;20.73;9.60;;;;;;;16.45;100.00;99728.28;5117434;28;20044;-64
2023/08/01 04:11:36;;;;;;;17.50;10.25;;;;;;;16.46;100.00;99722.47;5116128;28;20043;-62
2023/08/01 04:14:04;;;;;;;17.95;9.23;;;;;;;16.38;100.00;99726.09;5118315;28;20129;-63
2023/08/01 04:16:32;;;;;;;21.00;10.75;;;;;;;16.35;100.00;99724.00;5111299;28;20062;-63
2023/08/01 04:19:00;;;;;;;19.50;10.35;;;;;;;16.31;100.00;99712.88;5116525;28;20403;-63
2023/08/01 04:21:27;;;;;;;16.27;8.82;;;;;;;16.37;100.00;99718.97;5116633;28;20048;-64
2023/08/01 04:23:55;;;;;;;22.75;11.05;;;;;;;16.40;100.00;99718.28;5117711;28;20047;-64
2023/08/01 04:26:23;;;;;;;23.80;10.43;;;;;;;16.42;100.00;99720.72;5116780;28;20051;-63
2023/08/01 04:28:51;;;;;;;19.75;11.00;;;;;;;16.42;100.00;99726.22;5116923;28;20381;-63
2023/08/01 04:31:18;;;;;;;24.40;11.68;;;;;;;16.38;100.00;99729.63;5098556;28;20572;-63
2023/08/01 04:33:46;;;;;;;25.70;10.93;;;;;;;16.39;100.00;99733.19;5114747;28;20465;-64
2023/08/01 04:36:14;;;;;;;18.45;10.40;;;;;;;16.37;100.00;99730.75;5115860;28;20048;-63
2023/08/01 04:38:42;;;;;;;24.45;12.07;;;;;;;16.32;100.00;99724.66;5114471;28;20040;-64
2023/08/01 04:41:10;;;;;;;14.73;8.68;;;;;;;16.31;100.00;99723.88;5116922;28;20043;-63
2023/08/01 04:43:38;;;;;;;15.43;8.52;;;;;;;16.38;100.00;99724.13;5115215;28;20054;-65
2023/08/01 04:46:06;;;;;;;17.55;9.20;;;;;;;16.44;100.00;99724.75;5116060;28;20496;-65
2023/08/01 04:48:33;;;;;;;18.48;7.57;;;;;;;16.46;100.00;99721.66;5113406;28;20086;-65
2023/08/01 04:51:01;;;;;;;17.60;8.20;;;;;;;16.48;100.00;99725.69;5114092;28;20055;-63
2023/08/01 04:53:29;;;;;;;12.05;5.68;;;;;;;16.46;100.00;99725.22;5115082;28;20050;-65
2023/08/01 04:55:56;;;;;;;15.75;7.57;;;;;;;16.46;100.00;99730.72;5117188;28;20412;-63
2023/08/01 04:58:24;;;;;;;16.65;8.25;;;;;;;16.45;100.00;99728.28;5116422;28;20052;-63
2023/08/01 05:00:52;;;;;;;21.63;10.85;;;;;;;16.42;100.00;99735.25;5118404;28;20051;-65
2023/08/01 05:03:22;;;;;;;12.70;6.28;;;;;;;16.46;100.00;99738.97;5108544;28;20063;-63
2023/08/01 05:05:50;;;;;;;19.45;10.98;;;;;;;16.52;100.00;99742.31;5110453;28;20055;-64
2023/08/01 05:08:18;;;;;;;19.83;9.00;;;;;;;16.47;100.00;99729.56;5114702;28;20051;-65
2023/08/01 05:10:45;;;;;;;22.80;10.77;;;;;;;16.46;100.00;99735.41;5114699;28;20043;-63
2023/08/01 05:13:14;;;;;;;20.92;10.55;;;;;;;16.49;100.00;99735.53;5111619;28;20408;-63
2023/08/01 05:15:44;;;;;;;15.02;7.25;;;;;;;16.60;100.00;99736.75;5115030;28;20515;-64
2023/08/01 05:18:12;;;;;;;20.85;10.98;;;;;;;16.55;100.00;99728.72;5110857;28;20044;-65
2023/08/01 05:20:39;;;;;;;20.40;10.68;;;;;;;16.54;100.00;99723.53;5117470;28;20488;-65
2023/08/01 05:23:08;;;;;;;18.77;9.73;;;;;;;16.51;100.00;99726.97;5114566;28;20066;-64
2023/08/01 05:25:36;;;;;;;19.27;10.10;;;;;;;16.48;100.00;99741.38;4404879;28;10000747;-64
2023/08/01 05:28:04;;;;;;;11.65;5.38;;;;;;;16.50;100.00;99734.41;5112214;28;20039;-63
2023/08/01 05:30:31;;;;;;;17.50;8.70;;;;;;;16.50;100.00;99737.16;5107644;28;20527;-65
2023/08/01 05:33:00;;;;;;;13.57;7.47;;;;;;;16.54;100.00;99740.84;5093820;28;20556;-65
2023/08/01 05:35:27;;;;;;;20.10;9.68;;;;;;;16.54;100.00;99740.84;5111200;28;20047;-64
2023/08/01 05:37:55;;;;;;;11.25;5.38;;;;;;;16.54;100.00;99735.34;5108891;28;20047;-65
2023/08/01 05:40:23;;;;;;;11.65;6.05;;;;;;;16.57;100.00;99740.19;5110377;28;20044;-64
2023/08/01 05:42:51;;;;;;;18.58;10.20;;;;;;;16.58;100.00;99738.22;5110866;28;20063;-65
2023/08/01 05:45:19;;;;;;;19.52;10.23;;;;;;;16.56;100.00;99748.75;5108902;28;20058;-64
2023/08/01 05:47:47;;;;;;;16.33;9.07;;;;;;;16.55;100.00;99745.22;5110667;28;20500;-65
2023/08/01 05:50:14;;;;;;;17.63;10.25;;;;;;;16.56;100.00;99746.81;5109008;28;20050;-66
2023/08/01 05:52:42;;;;;;;13.73;6.65;;;;;;;16.61;100.00;99746.59;5106973;28;20052;-66
2023/08/01 05:55:10;;;;;;;13.43;7.38;;;;;;;16.65;100.00;99751.47;5110081;28;20052;-65
2023/08/01 05:57:38;;;;;;;9.05;4.75;;;;;;;16.73;100.00;99748.63;5110272;28;20403;-64
2023/08/01 06:00:06;;;;;;;16.45;8.25;;;;;;;16.67;100.00;99755.47;5111182;28;20031;-65
2023/08/01 06:02:40;;;;;;;15.43;7.32;;;;;;;16.65;100.00;99751.47;5109877;28;20476;-63
2023/08/01 06:05:08;;;;;;;12.25;5.20;;;;;;;16.68;100.00;99761.78;5110129;28;20047;-65
2023/08/01 06:07:36;;;;;;;15.35;6.20;;;;;;;16.67;100.00;99760.16;5110651;28;20043;-66
2023/08/01 06:10:04;;;;;;;19.52;8.45;;;;;;;16.76;100.00;99763.66;5092819;28;20067;-66
2023/08/01 06:12:31;;;;;;;12.93;5.55;;;;;;;16.68;100.00;99778.28;5108140;28;20650;-66
2023/08/01 06:14:59;;;;;;;20.77;8.55;;;;;;;16.66;100.00;99764.06;5112587;28;20054;-65
2023/08/01 06:17:27;;;;;;;17.15;8.02;;;;;;;16.61;100.00;99776.06;5120967;28;20039;-66
2023/08/01 06:19:55;;;;;;;13.18;6.55;;;;;;;16.58;100.00;99780.28;5125506;28;20096;-61
2023/08/01 06:22:23;;;;;;;17.88;8.75;;;;;;;16.57;100.00;99773.19;5124335;28;20114;-64
2023/08/01 06:24:51;;;;;;;21.45;9.70;;;;;;;16.67;100.00;99782.16;5111290;28;20052;-65
2023/08/01 06:27:18;;;;;;;19.88;7.57;;;;;;;16.65;100.00;99785.25;5115134;28;20044;-64
2023/08/01 06:29:46;;;;;;;17.77;7.88;;;;;;;16.71;100.00;99783.91;5108828;28;20047;-63
2023/08/01 06:32:14;;;;;;;19.77;8.23;;;;;;;16.71;100.00;99777.59;5125403;28;20130;-62
2023/08/01 06:34:42;;;;;;;21.90;8.75;;;;;;;16.78;100.00;99773.19;5083985;28;20484;-64
2023/08/01 06:37:10;;;;;;;25.42;8.38;;;;;;;16.78;100.00;99766.88;5108031;28;20044;-65
2023/08/01 06:39:37;;;;;;;26.60;7.80;;;;;;;16.79;100.00;99774.03;5112394;28;20039;-64
2023/08/01 06:42:06;;;;;;;17.90;7.97;;;;;;;16.82;100.00;99773.34;5102970;28;20055;-66
2023/08/01 06:44:34;;;;;;;18.50;7.80;;;;;;;16.78;100.00;99769.63;5109663;28;20051;-65
2023/08/01 06:47:02;;;;;;;29.73;10.75;;;;;;;16.86;100.00;99781.72;5109771;28;20057;-64
2023/08/01 06:49:29;;;;;;;18.25;7.82;;;;;;;16.85;100.00;99778.19;5092439;28;20058;-64
2023/08/01 06:51:57;;;;;;;21.55;9.02;;;;;;;16.84;100.00;99787.59;5109383;28;20035;-64
2023/08/01 06:54:25;;;;;;;20.20;8.98;;;;;;;16.83;100.00;99785.97;5108598;28;20047;-66
2023/08/01 06:56:53;;;;;;;15.88;6.88;;;;;;;16.81;100.00;99802.00;5109774;28;20043;-64
2023/08/01 06:59:20;;;;;;;18.88;7.75;;;;;;;16.80;100.00;99803.94;5106741;28;20066;-67
2023/08/01 07:01:48;;;;;;;22.52;8.45;;;;;;;16.82;100.00;99806.38;5106548;28;20112;-63
2023/08/01 07:04:16;;;;;;;17.48;7.40;;;;;;;16.78;100.00;99806.22;5096118;28;20494;-66
2023/08/01 07:06:44;;;;;;;17.20;7.43;;;;;;;16.74;100.00;99796.19;5104594;28;20043;-65
2023/08/01 07:09:12;;;;;;;12.65;5.00;;;;;;;16.76;100.00;99797.50;5093219;28;20060;-64
2023/08/01 07:11:39;;;;;;;13.35;6.03;;;;;;;16.77;100.00;99803.78;5097221;28;20051;-65
2023/08/01 07:14:07;;;;;;;21.85;7.78;;;;;;;16.85;100.00;99805.69;5103651;28;20342;-64
2023/08/01 07:16:35;;;;;;;17.70;6.28;;;;;;;16.92;100.00;99800.47;5087989;28;20434;-63
2023/08/01 07:19:03;;;;;;;24.13;8.60;;;;;;;17.05;100.00;99801.31;5091196;28;20079;-66
2023/08/01 07:21:31;;;;;;;15.30;5.95;;;;;;;17.04;100.00;99803.28;5100408;28;20039;-64
2023/08/01 07:23:58;;;;;;;17.85;6.03;;;;;;;17.04;100.00;99792.25;5102446;28;20492;-65
2023/08/01 07:26:28;;;;;;;13.80;6.50;;;;;;;17.11;100.00;99801.94;5104319;28;20353;-64
2023/08/01 07:28:56;;;;;;;14.20;6.30;;;;;;;17.22;100.00;99803.13;5091798;28;20055;-64
2023/08/01 07:31:24;;;;;;;21.58;6.90;;;;;;;17.26;100.00;99798.56;5107396;28;20380;-66
2023/08/01 07:33:52;;;;;;;13.90;5.78;;;;;;;17.25;100.00;99805.22;5109935;28;20040;-65
2023/08/01 07:36:21;;;;;;;12.88;5.25;;;;;;;17.25;100.00;99802.47;5089983;28;20114;-65
2023/08/01 07:38:49;;;;;;;13.23;5.53;;;;;;;17.20;100.00;99806.22;5101144;28;20403;-65
2023/08/01 07:41:16;;;;;;;17.73;5.90;;;;;;;17.19;100.00;99798.28;5105356;28;20056;-65
2023/08/01 07:43:44;;;;;;;10.88;5.28;;;;;;;17.16;100.00;99799.78;5108241;28;20051;-66
2023/08/01 07:46:12;;;;;;;14.48;5.10;;;;;;;17.13;100.00;99794.94;5108325;28;20048;-64
2023/08/01 07:48:40;;;;;;;13.02;5.30;;;;;;;17.13;100.00;99802.41;5109259;28;20039;-62
2023/08/01 07:51:08;;;;;;;15.48;5.63;;;;;;;17.09;100.00;99815.22;5112060;28;20039;-64
2023/08/01 07:53:35;;;;;;;19.02;6.65;;;;;;;17.10;100.00;99803.88;5100083;28;20047;-65
2023/08/01 07:56:06;;;;;;;15.60;5.85;;;;;;;17.13;100.00;99802.41;5081482;28;20052;-64
2023/08/01 07:58:34;;;;;;;16.20;5.30;;;;;;;17.09;100.00;99804.22;5120274;28;20051;-64
2023/08/01 08:01:06;;;;;;;12.23;5.07;;;;;;;17.08;100.00;99803.41;5112006;28;20044;-64
2023/08/01 08:03:34;;;;;;;13.73;5.65;;;;;;;17.09;100.00;99805.00;5104683;28;20044;-64
2023/08/01 08:06:03;;;;;;;17.88;5.68;;;;;;;17.04;100.00;99797.75;5103210;28;20491;-62
2023/08/01 08:08:36;;;;;;;21.17;6.00;;;;;;;17.02;100.00;99794.53;5101589;28;20100;-64
2023/08/01 08:11:04;;;;;;;17.17;6.13;;;;;;;16.98;100.00;99801.06;5112533;28;20052;-64
2023/08/01 08:13:31;;;;;;;19.75;6.57;;;;;;;16.98;100.00;99804.63;5108539;28;20153;-65
2023/08/01 08:15:59;;;;;;;14.05;5.28;;;;;;;17.00;100.00;99807.84;5100614;28;20047;-63
2023/08/01 08:18:27;;;;;;;16.52;6.05;;;;;;;16.97;100.00;99807.72;5093223;28;20044;-63
2023/08/01 08:20:55;;;;;;;12.15;5.30;;;;;;;16.95;100.00;99808.03;5102095;28;20089;-62
2023/08/01 08:23:23;;;;;;;14.88;5.18;;;;;;;16.95;100.00;99808.03;5112169;28;20051;-64
2023/08/01 08:25:51;;;;;;;12.15;4.97;;;;;;;16.98;100.00;99812.06;5129424;28;20058;-63
2023/08/01 08:28:29;;;;;;;12.20;5.40;;;;;;;16.96;100.00;99812.41;5112213;28;20403;-64
2023/08/01 08:30:58;;;;;;;13.57;5.55;;;;;;;16.96;100.00;99809.66;5113141;28;20047;-64
2023/08/01 08:33:26;;;;;;;16.55;4.80;;;;;;;16.94;100.00;99802.88;5114944;28;20042;-64
2023/08/01 08:35:53;;;;;;;15.73;5.47;;;;;;;16.93;100.00;99804.84;5117643;28;20048;-64
2023/08/01 08:38:21;;;;;;;15.05;4.97;;;;;;;16.92;100.00;99803.22;5117135;28;20048;-64
2023/08/01 08:41:09;;;;;;;13.57;5.40;;;;;;;16.97;100.00;99797.50;5116846;28;20043;-65
2023/08/01 08:43:37;;;;;;;12.52;5.00;;;;;;;16.97;100.00;99811.25;5117437;28;20483;-63
2023/08/01 08:46:05;;;;;;;14.88;5.47;;;;;;;16.97;100.00;99819.50;5099318;28;20052;-63
2023/08/01 08:48:33;;;;;;;18.42;5.07;;;;;;;17.00;100.00;99829.88;5115998;28;20546;-63
2023/08/01 08:51:03;;;;;;;10.63;4.03;;;;;;;17.01;100.00;99836.19;5116802;28;20043;-62
2023/08/01 08:53:32;;;;;;;10.00;4.03;;;;;;;17.04;100.00;99836.28;5119004;28;20496;-62
2023/08/01 08:56:01;;;;;;;11.68;4.10;;;;;;;17.03;100.00;99834.69;5120909;28;20395;-62
2023/08/01 08:58:32;;;;;;;13.95;5.18;;;;;;;17.02;100.00;99855.09;5120483;28;20051;-62
2023/08/01 09:01:04;;;;;;;17.08;5.25;;;;;;;16.96;100.00;99850.13;5120980;28;20115;-62
2023/08/01 09:03:32;;;;;;;9.82;3.45;;;;;;;16.85;100.00;99844.22;5121337;28;20450;-63
2023/08/01 09:06:13;;;;;;;9.10;3.65;;;;;;;16.74;100.00;99843.78;5121656;28;20130;-62
2023/08/01 09:08:41;;;;;;;10.93;3.80;;;;;;;16.73;100.00;99844.91;5123151;28;20051;-65
2023/08/01 09:11:08;;;;;;;9.38;3.90;;;;;;;16.77;100.00;99840.34;5104081;28;20118;-63
2023/08/01 09:13:36;;;;;;;9.20;3.42;;;;;;;16.87;100.00;99841.94;5102836;28;20127;-63
2023/08/01 09:16:07;;;;;;;11.90;4.22;;;;;;;16.99;100.00;99832.94;5118769;28;20400;-63
2023/08/01 09:18:35;;;;;;;11.60;4.63;;;;;;;17.08;100.00;99832.88;5120772;28;20131;-62
2023/08/01 09:21:04;;;;;;;11.95;4.57;;;;;;;17.13;100.00;99827.19;5121698;28;20119;-63
2023/08/01 09:23:32;;;;;;;10.95;4.57;;;;;;;17.15;100.00;99836.72;5118277;28;20047;-62
2023/08/01 09:25:59;;;;;;;11.00;4.65;;;;;;;17.15;100.00;99847.72;5117914;28;20050;-63
2023/08/01 09:28:27;;;;;;;12.27;4.90;;;;;;;17.15;100.00;99846.91;5100011;28;20039;-63
2023/08/01 09:30:57;;;;;;;12.93;4.00;;;;;;;17.09;100.00;99854.56;5117174;28;20055;-63
2023/08/01 09:33:25;;;;;;;11.77;4.07;;;;;;;17.04;100.00;99861.06;5117424;28;20503;-63
2023/08/01 09:35:53;;;;;;;12.75;3.90;;;;;;;17.02;100.00;99860.59;5116236;28;20047;-63
2023/08/01 09:38:21;;;;;;;14.63;4.32;;;;;;;17.00;100.00;99864.81;5116591;28;20044;-64
2023/08/01 09:40:50;;;;;;;12.48;4.13;;;;;;;16.99;100.00;99868.72;5118186;28;20047;-64
2023/08/01 09:43:17;;;;;;;9.80;3.65;;;;;;;17.00;100.00;99853.81;5116974;28;20055;-64
2023/08/01 09:45:52;;;;;;;12.65;4.05;;;;;;;16.99;100.00;99877.78;5097950;28;20056;-63
2023/08/01 09:48:25;;;;;;;9.43;3.72;;;;;;;17.00;100.00;99876.66;5116388;28;20059;-63
2023/08/01 09:51:05;;;;;;;9.23;3.72;;;;;;;17.01;100.00;99875.50;5115787;28;20051;-63
2023/08/01 09:53:33;;;;;;;15.95;4.72;;;;;;;17.07;100.00;99883.56;5115800;28;20047;-63
2023/08/01 09:56:02;;;;;;;11.80;4.10;;;;;;;17.10;100.00;99877.38;5115451;28;20044;-64
2023/08/01 09:58:34;;;;;;;13.00;4.85;;;;;;;17.12;100.00;99875.91;5116125;28;20043;-66
2023/08/01 10:01:02;;;;;;;9.38;3.90;;;;;;;17.17;100.00;99877.66;5097945;28;20044;-63
2023/08/01 10:03:29;;;;;;;13.07;4.35;;;;;;;17.21;100.00;99878.59;5116205;28;20048;-63
2023/08/01 10:05:58;;;;;;;11.25;4.05;;;;;;;17.25;100.00;99879.53;5116265;28;20043;-64
2023/08/01 10:08:28;;;;;;;12.70;4.47;;;;;;;17.33;100.00;99875.91;5114817;28;20059;-63
2023/08/01 10:10:57;;;;;;;11.20;4.13;;;;;;;17.42;100.00;99878.59;5116688;28;20103;-65
2023/08/01 10:13:25;;;;;;;15.93;4.97;;;;;;;17.46;100.00;99885.84;5116686;28;20277;-61
2023/08/01 10:15:52;;;;;;;13.25;4.35;;;;;;;17.52;100.00;99880.13;5115571;28;20051;-64
2023/08/01 10:18:20;;;;;;;16.23;4.25;;;;;;;17.54;100.00;99878.66;5098060;28;20051;-62
2023/08/01 10:20:49;;;;;;;15.98;3.83;;;;;;;17.56;100.00;99883.81;5116037;28;20042;-63
2023/08/01 10:23:17;;;;;;;11.25;3.88;;;;;;;17.62;100.00;99890.72;5098395;28;20048;-66
2023/08/01 10:25:45;;;;;;;8.90;3.50;;;;;;;17.69;100.00;99882.72;5097740;28;20066;-64
2023/08/01 10:28:13;;;;;;;10.48;3.50;;;;;;;17.77;100.00;99884.56;5097315;28;20056;-62
2023/08/01 10:30:41;;;;;;;12.15;3.83;;;;;;;17.84;100.00;99879.34;5115143;28;20043;-65
2023/08/01 10:33:12;;;;;;;10.80;3.97;;;;;;;17.93;100.00;99882.00;5114486;28;20058;-63
2023/08/01 10:35:40;;;;;;;12.82;4.00;;;;;;;17.98;100.00;99878.25;5114193;28;20385;-63
2023/08/01 10:38:12;;;;;;;7.43;3.15;;;;;;;18.03;100.00;99880.78;5115327;28;20039;-64
2023/08/01 10:40:43;;;;;;;11.68;3.65;;;;;;;18.08;100.00;99878.59;5114908;28;20455;-62
2023/08/01 10:43:24;;;;;;;11.70;3.67;;;;;;;18.07;100.00;99892.75;5116009;28;20077;-65
2023/08/01 10:46:04;;;;;;;12.20;3.65;;;;;;;17.99;100.00;99888.94;5118040;28;20043;-62
2023/08/01 10:48:32;;;;;;;14.95;3.67;;;;;;;17.93;100.00;99892.25;5129459;28;20063;-62
2023/08/01 10:51:02;;;;;;;11.38;3.80;;;;;;;17.88;100.00;99912.56;5126270;28;20115;-63
2023/08/01 10:53:39;;;;;;;11.32;3.83;;;;;;;17.82;100.00;99903.69;5116967;28;20066;-63
2023/08/01 10:56:17;;;;;;;14.18;4.47;;;;;;;17.79;100.00;99922.81;5123410;28;20092;-61
2023/08/01 10:58:46;;;;;;;8.95;3.28;;;;;;;17.77;100.00;99909.38;5126716;28;20046;-64
2023/08/01 11:01:14;;;;;;;11.57;3.78;;;;;;;17.80;100.00;99911.50;5096170;28;20118;-63
2023/08/01 11:03:41;;;;;;;13.23;4.07;;;;;;;17.82;100.00;99914.72;5114388;28;20043;-64
2023/08/01 11:06:10;;;;;;;10.30;3.53;;;;;;;17.83;100.00;99907.25;5115292;28;20043;-62
2023/08/01 11:08:39;;;;;;;13.32;4.28;;;;;;;17.87;100.00;99911.75;5113514;28;20051;-63
2023/08/01 11:11:08;;;;;;;12.05;4.30;;;;;;;17.92;100.00;99912.66;5110183;28;20055;-63
2023/08/01 11:13:37;;;;;;;12.15;4.10;;;;;;;17.99;100.00;99918.44;5096598;28;20047;-64
2023/08/01 11:16:06;;;;;;;13.93;4.25;;;;;;;18.03;100.00;99917.41;5113077;28;20503;-63
2023/08/01 11:18:43;;;;;;;12.23;4.18;;;;;;;17.99;100.00;99923.94;5113087;28;20050;-63
2023/08/01 11:21:11;;;;;;;13.93;4.00;;;;;;;18.02;100.00;99915.00;5073473;28;20085;-64
2023/08/01 11:23:39;;;;;;;9.50;3.35;;;;;;;18.07;100.00;99923.88;5112768;28;20491;-63